sensor_id;sensor_type;location;lat;lon;timestamp;pressure;altitude;pressure_sealevel;temperature;humidity
8253;BME280;61313;48.396;10.008;2023-11-22T00:01:10;96370.78;;;8.39;73.28
8253;BME280;61313;48.396;10.008;2023-11-22T00:03:36;96366.59;;;8.60;72.48
8253;BME280;61313;48.396;10.008;2023-11-22T00:06:01;96371.34;;;8.96;71.22
8253;BME280;61313;48.396;10.008;2023-11-22T00:08:27;96360.66;;;8.78;72.00
8253;BME280;61313;48.396;10.008;2023-11-22T00:10:54;96368.28;;;8.84;71.93
8253;BME280;61313;48.396;10.008;2023-11-22T00:13:20;96359.44;;;8.87;72.16
8253;BME280;61313;48.396;10.008;2023-11-22T00:15:45;96354.72;;;8.97;71.31
8253;BME280;61313;48.396;10.008;2023-11-22T00:18:10;96351.94;;;9.01;71.57
8253;BME280;61313;48.396;10.008;2023-11-22T00:20:36;96354.75;;;8.95;71.77
8253;BME280;61313;48.396;10.008;2023-11-22T00:23:01;96357.47;;;8.94;71.38
8253;BME280;61313;48.396;10.008;2023-11-22T00:25:28;96350.34;;;8.97;71.30
8253;BME280;61313;48.396;10.008;2023-11-22T00:27:53;96353.28;;;8.88;71.85
8253;BME280;61313;48.396;10.008;2023-11-22T00:30:20;96355.28;;;9.05;71.50
8253;BME280;61313;48.396;10.008;2023-11-22T00:32:45;96353.34;;;9.10;71.12
8253;BME280;61313;48.396;10.008;2023-11-22T00:35:11;96349.09;;;9.07;71.42
8253;BME280;61313;48.396;10.008;2023-11-22T00:37:37;96349.31;;;9.01;71.29
8253;BME280;61313;48.396;10.008;2023-11-22T00:40:03;96359.56;;;8.84;72.78
8253;BME280;61313;48.396;10.008;2023-11-22T00:42:38;96358.03;;;8.78;72.16
8253;BME280;61313;48.396;10.008;2023-11-22T00:45:06;96355.88;;;8.89;72.30
8253;BME280;61313;48.396;10.008;2023-11-22T00:47:34;96358.44;;;8.91;72.07
8253;BME280;61313;48.396;10.008;2023-11-22T00:49:59;96358.19;;;8.97;71.95
8253;BME280;61313;48.396;10.008;2023-11-22T00:52:25;96359.66;;;8.57;73.30
8253;BME280;61313;48.396;10.008;2023-11-22T00:54:50;96364.50;;;8.44;75.03
8253;BME280;61313;48.396;10.008;2023-11-22T00:57:16;96360.47;;;8.59;73.72
8253;BME280;61313;48.396;10.008;2023-11-22T00:59:42;96366.22;;;8.69;73.17
8253;BME280;61313;48.396;10.008;2023-11-22T01:02:07;96371.44;;;8.93;72.53
8253;BME280;61313;48.396;10.008;2023-11-22T01:04:34;96376.75;;;8.91;73.04
8253;BME280;61313;48.396;10.008;2023-11-22T01:07:02;96381.75;;;8.97;72.82
8253;BME280;61313;48.396;10.008;2023-11-22T01:09:29;96378.22;;;8.98;72.86
8253;BME280;61313;48.396;10.008;2023-11-22T01:11:55;96375.59;;;8.98;72.69
8253;BME280;61313;48.396;10.008;2023-11-22T01:14:21;96378.53;;;8.90;73.15
8253;BME280;61313;48.396;10.008;2023-11-22T01:16:47;96377.59;;;8.92;72.93
8253;BME280;61313;48.396;10.008;2023-11-22T01:19:12;96376.63;;;8.94;73.24
8253;BME280;61313;48.396;10.008;2023-11-22T01:21:37;96383.75;;;8.90;73.12
8253;BME280;61313;48.396;10.008;2023-11-22T01:24:03;96378.78;;;8.83;72.94
8253;BME280;61313;48.396;10.008;2023-11-22T01:26:29;96377.25;;;8.77;74.01
8253;BME280;61313;48.396;10.008;2023-11-22T01:28:55;96389.84;;;8.91;73.19
8253;BME280;61313;48.396;10.008;2023-11-22T01:31:21;96388.56;;;8.78;73.67
8253;BME280;61313;48.396;10.008;2023-11-22T01:33:47;96391.69;;;8.87;73.13
8253;BME280;61313;48.396;10.008;2023-11-22T01:36:13;96387.09;;;8.94;73.26
8253;BME280;61313;48.396;10.008;2023-11-22T01:38:40;96391.03;;;8.82;73.53
8253;BME280;61313;48.396;10.008;2023-11-22T01:41:05;96392.22;;;8.74;73.64
8253;BME280;61313;48.396;10.008;2023-11-22T01:43:31;96388.56;;;8.78;74.18
8253;BME280;61313;48.396;10.008;2023-11-22T01:45:56;96386.63;;;8.83;74.32
8253;BME280;61313;48.396;10.008;2023-11-22T01:48:22;96410.56;;;8.48;74.82
8253;BME280;61313;48.396;10.008;2023-11-22T01:50:48;96411.41;;;7.44;76.98
8253;BME280;61313;48.396;10.008;2023-11-22T01:53:14;96417.38;;;7.19;77.83
8253;BME280;61313;48.396;10.008;2023-11-22T01:55:41;96425.75;;;7.01;78.93
8253;BME280;61313;48.396;10.008;2023-11-22T01:58:07;96429.22;;;7.02;79.19
8253;BME280;61313;48.396;10.008;2023-11-22T02:00:47;96439.22;;;7.15;78.06
8253;BME280;61313;48.396;10.008;2023-11-22T02:03:13;96428.78;;;7.15;76.77
8253;BME280;61313;48.396;10.008;2023-11-22T02:05:40;96444.88;;;7.30;75.78
8253;BME280;61313;48.396;10.008;2023-11-22T02:08:08;96437.16;;;7.27;74.07
8253;BME280;61313;48.396;10.008;2023-11-22T02:10:34;96441.88;;;6.84;75.61
8253;BME280;61313;48.396;10.008;2023-11-22T02:13:02;96439.28;;;6.53;76.15
8253;BME280;61313;48.396;10.008;2023-11-22T02:15:30;96457.66;;;6.79;74.60
8253;BME280;61313;48.396;10.008;2023-11-22T02:17:55;96456.44;;;6.62;75.87
8253;BME280;61313;48.396;10.008;2023-11-22T02:20:22;96462.75;;;6.84;74.73
8253;BME280;61313;48.396;10.008;2023-11-22T02:22:47;96473.63;;;6.69;74.57
8253;BME280;61313;48.396;10.008;2023-11-22T02:25:13;96466.50;;;6.43;75.83
8253;BME280;61313;48.396;10.008;2023-11-22T02:27:40;96480.03;;;6.23;76.64
8253;BME280;61313;48.396;10.008;2023-11-22T02:30:06;96483.44;;;6.59;75.83
8253;BME280;61313;48.396;10.008;2023-11-22T02:32:32;96486.69;;;6.67;75.64
8253;BME280;61313;48.396;10.008;2023-11-22T02:34:59;96491.41;;;6.54;75.34
8253;BME280;61313;48.396;10.008;2023-11-22T02:37:24;96478.50;;;6.48;76.02
8253;BME280;61313;48.396;10.008;2023-11-22T02:40:17;96488.75;;;6.87;75.17
8253;BME280;61313;48.396;10.008;2023-11-22T02:42:46;96491.53;;;6.81;74.98
8253;BME280;61313;48.396;10.008;2023-11-22T02:45:12;96483.34;;;6.95;74.53
8253;BME280;61313;48.396;10.008;2023-11-22T02:47:39;96488.59;;;6.93;74.28
8253;BME280;61313;48.396;10.008;2023-11-22T02:50:05;96499.59;;;6.72;76.19
8253;BME280;61313;48.396;10.008;2023-11-22T02:52:31;96501.75;;;6.56;76.56
8253;BME280;61313;48.396;10.008;2023-11-22T02:54:57;96495.22;;;6.41;77.55
8253;BME280;61313;48.396;10.008;2023-11-22T02:57:22;96505.09;;;6.28;77.58
8253;BME280;61313;48.396;10.008;2023-11-22T02:59:48;96501.25;;;6.43;77.55
8253;BME280;61313;48.396;10.008;2023-11-22T03:02:13;96503.88;;;6.74;77.00
8253;BME280;61313;48.396;10.008;2023-11-22T03:04:41;96511.91;;;6.67;75.33
8253;BME280;61313;48.396;10.008;2023-11-22T03:07:07;96506.59;;;7.03;74.32
8253;BME280;61313;48.396;10.008;2023-11-22T03:09:32;96513.47;;;7.05;73.60
8253;BME280;61313;48.396;10.008;2023-11-22T03:11:58;96509.09;;;7.06;73.03
8253;BME280;61313;48.396;10.008;2023-11-22T03:14:23;96508.47;;;6.97;73.89
8253;BME280;61313;48.396;10.008;2023-11-22T03:16:48;96510.91;;;7.04;73.05
8253;BME280;61313;48.396;10.008;2023-11-22T03:19:15;96510.19;;;6.66;73.07
8253;BME280;61313;48.396;10.008;2023-11-22T03:21:41;96516.69;;;6.84;72.27
8253;BME280;61313;48.396;10.008;2023-11-22T03:24:09;96518.00;;;6.66;73.97
8253;BME280;61313;48.396;10.008;2023-11-22T03:26:35;96524.78;;;6.73;74.14
8253;BME280;61313;48.396;10.008;2023-11-22T03:29:01;96533.41;;;6.42;74.66
8253;BME280;61313;48.396;10.008;2023-11-22T03:31:27;96537.84;;;6.03;76.42
8253;BME280;61313;48.396;10.008;2023-11-22T03:33:54;96535.63;;;5.86;76.80
8253;BME280;61313;48.396;10.008;2023-11-22T03:36:20;96530.81;;;6.06;75.57
8253;BME280;61313;48.396;10.008;2023-11-22T03:38:46;96536.22;;;5.99;75.28
8253;BME280;61313;48.396;10.008;2023-11-22T03:41:11;96540.41;;;6.04;76.09
8253;BME280;61313;48.396;10.008;2023-11-22T03:43:36;96543.47;;;6.22;75.53
8253;BME280;61313;48.396;10.008;2023-11-22T03:46:02;96547.03;;;6.19;75.43
8253;BME280;61313;48.396;10.008;2023-11-22T03:48:27;96550.56;;;6.17;75.39
8253;BME280;61313;48.396;10.008;2023-11-22T03:50:53;96544.56;;;6.11;75.53
8253;BME280;61313;48.396;10.008;2023-11-22T03:53:19;96546.16;;;5.80;75.92
8253;BME280;61313;48.396;10.008;2023-11-22T03:55:47;96546.81;;;5.89;76.18
8253;BME280;61313;48.396;10.008;2023-11-22T03:58:13;96572.28;;;5.77;75.98
8253;BME280;61313;48.396;10.008;2023-11-22T04:00:38;96570.84;;;5.62;76.27
8253;BME280;61313;48.396;10.008;2023-11-22T04:03:03;96584.16;;;5.04;78.19
8253;BME280;61313;48.396;10.008;2023-11-22T04:05:29;96588.19;;;5.21;78.04
8253;BME280;61313;48.396;10.008;2023-11-22T04:07:54;96592.91;;;5.00;78.22
8253;BME280;61313;48.396;10.008;2023-11-22T04:10:21;96595.75;;;4.88;79.42
8253;BME280;61313;48.396;10.008;2023-11-22T04:12:47;96596.00;;;5.19;78.38
8253;BME280;61313;48.396;10.008;2023-11-22T04:15:13;96595.34;;;5.53;77.76
8253;BME280;61313;48.396;10.008;2023-11-22T04:17:42;96598.31;;;5.77;76.16
8253;BME280;61313;48.396;10.008;2023-11-22T04:20:08;96602.28;;;5.94;75.16
8253;BME280;61313;48.396;10.008;2023-11-22T04:22:38;96611.06;;;5.89;76.02
8253;BME280;61313;48.396;10.008;2023-11-22T04:25:03;96611.16;;;6.25;74.49
8253;BME280;61313;48.396;10.008;2023-11-22T04:27:29;96608.13;;;6.06;75.06
8253;BME280;61313;48.396;10.008;2023-11-22T04:29:55;96614.91;;;6.13;74.25
8253;BME280;61313;48.396;10.008;2023-11-22T04:32:20;96625.63;;;5.99;73.57
8253;BME280;61313;48.396;10.008;2023-11-22T04:34:47;96622.81;;;6.08;72.96
8253;BME280;61313;48.396;10.008;2023-11-22T04:37:13;96627.91;;;6.14;72.11
8253;BME280;61313;48.396;10.008;2023-11-22T04:39:38;96635.78;;;6.11;71.79
8253;BME280;61313;48.396;10.008;2023-11-22T04:42:04;96653.16;;;6.11;71.94
8253;BME280;61313;48.396;10.008;2023-11-22T04:44:29;96665.13;;;6.20;71.78
8253;BME280;61313;48.396;10.008;2023-11-22T04:46:55;96660.34;;;6.00;71.79
8253;BME280;61313;48.396;10.008;2023-11-22T04:49:20;96663.28;;;5.83;72.63
8253;BME280;61313;48.396;10.008;2023-11-22T04:51:45;96663.66;;;6.08;70.83
8253;BME280;61313;48.396;10.008;2023-11-22T04:54:11;96660.09;;;5.68;72.49
8253;BME280;61313;48.396;10.008;2023-11-22T04:56:36;96673.06;;;5.71;73.13
8253;BME280;61313;48.396;10.008;2023-11-22T04:59:02;96667.16;;;5.63;72.96
8253;BME280;61313;48.396;10.008;2023-11-22T05:01:35;96670.34;;;5.76;71.53
8253;BME280;61313;48.396;10.008;2023-11-22T05:04:00;96687.44;;;5.89;71.25
8253;BME280;61313;48.396;10.008;2023-11-22T05:06:26;96687.13;;;6.06;70.27
8253;BME280;61313;48.396;10.008;2023-11-22T05:08:52;96691.06;;;5.84;70.88
8253;BME280;61313;48.396;10.008;2023-11-22T05:11:18;96690.22;;;5.82;70.67
8253;BME280;61313;48.396;10.008;2023-11-22T05:13:43;96688.47;;;5.82;70.19
8253;BME280;61313;48.396;10.008;2023-11-22T05:16:09;96684.47;;;5.64;71.53
8253;BME280;61313;48.396;10.008;2023-11-22T05:18:35;96700.41;;;5.94;70.61
8253;BME280;61313;48.396;10.008;2023-11-22T05:21:01;96704.91;;;5.86;69.70
8253;BME280;61313;48.396;10.008;2023-11-22T05:23:28;96707.63;;;5.35;70.65
8253;BME280;61313;48.396;10.008;2023-11-22T05:25:53;96720.06;;;5.17;72.01
8253;BME280;61313;48.396;10.008;2023-11-22T05:28:19;96715.44;;;5.35;70.92
8253;BME280;61313;48.396;10.008;2023-11-22T05:30:44;96730.59;;;5.11;71.15
8253;BME280;61313;48.396;10.008;2023-11-22T05:33:10;96726.31;;;5.05;71.20
8253;BME280;61313;48.396;10.008;2023-11-22T05:35:35;96725.53;;;5.02;71.09
8253;BME280;61313;48.396;10.008;2023-11-22T05:38:00;96735.63;;;5.20;70.24
8253;BME280;61313;48.396;10.008;2023-11-22T05:40:27;96725.38;;;5.11;69.63
8253;BME280;61313;48.396;10.008;2023-11-22T05:42:52;96722.28;;;4.89;69.77
8253;BME280;61313;48.396;10.008;2023-11-22T05:45:18;96731.44;;;4.56;70.84
8253;BME280;61313;48.396;10.008;2023-11-22T05:47:43;96721.31;;;4.95;70.18
8253;BME280;61313;48.396;10.008;2023-11-22T05:50:09;96738.59;;;4.41;70.53
8253;BME280;61313;48.396;10.008;2023-11-22T05:52:34;96736.94;;;4.93;69.96
8253;BME280;61313;48.396;10.008;2023-11-22T05:55:00;96734.25;;;4.98;69.86
8253;BME280;61313;48.396;10.008;2023-11-22T05:57:29;96739.50;;;4.96;69.89
8253;BME280;61313;48.396;10.008;2023-11-22T05:59:55;96729.69;;;5.14;69.13
8253;BME280;61313;48.396;10.008;2023-11-22T06:02:20;96736.09;;;4.93;69.28
8253;BME280;61313;48.396;10.008;2023-11-22T06:04:46;96742.63;;;4.62;70.84
8253;BME280;61313;48.396;10.008;2023-11-22T06:07:11;96739.25;;;5.12;69.17
8253;BME280;61313;48.396;10.008;2023-11-22T06:09:37;96736.78;;;5.02;68.63
8253;BME280;61313;48.396;10.008;2023-11-22T06:12:02;96735.88;;;5.05;68.06
8253;BME280;61313;48.396;10.008;2023-11-22T06:14:27;96739.75;;;4.79;69.09
8253;BME280;61313;48.396;10.008;2023-11-22T06:16:53;96732.28;;;5.12;67.67
8253;BME280;61313;48.396;10.008;2023-11-22T06:19:19;96740.16;;;5.07;67.32
8253;BME280;61313;48.396;10.008;2023-11-22T06:21:44;96754.38;;;4.88;67.95
8253;BME280;61313;48.396;10.008;2023-11-22T06:24:11;96764.06;;;4.78;68.00
8253;BME280;61313;48.396;10.008;2023-11-22T06:26:41;96770.34;;;4.63;68.03
8253;BME280;61313;48.396;10.008;2023-11-22T06:29:06;96772.78;;;4.74;68.03
8253;BME280;61313;48.396;10.008;2023-11-22T06:31:33;96794.78;;;4.49;67.73
8253;BME280;61313;48.396;10.008;2023-11-22T06:33:59;96803.13;;;4.72;67.54
8253;BME280;61313;48.396;10.008;2023-11-22T06:36:26;96808.06;;;4.92;67.92
8253;BME280;61313;48.396;10.008;2023-11-22T06:38:53;96809.66;;;5.01;67.61
8253;BME280;61313;48.396;10.008;2023-11-22T06:41:19;96810.13;;;5.26;66.81
8253;BME280;61313;48.396;10.008;2023-11-22T06:43:47;96818.22;;;5.07;66.68
8253;BME280;61313;48.396;10.008;2023-11-22T06:46:12;96826.06;;;5.03;66.91
8253;BME280;61313;48.396;10.008;2023-11-22T06:48:37;96831.91;;;5.20;66.01
8253;BME280;61313;48.396;10.008;2023-11-22T06:51:03;96840.44;;;5.28;65.63
8253;BME280;61313;48.396;10.008;2023-11-22T06:53:28;96833.66;;;5.18;64.29
8253;BME280;61313;48.396;10.008;2023-11-22T06:55:54;96844.66;;;5.36;64.02
8253;BME280;61313;48.396;10.008;2023-11-22T06:58:19;96847.69;;;5.08;63.79
8253;BME280;61313;48.396;10.008;2023-11-22T07:00:44;96845.91;;;5.12;63.58
8253;BME280;61313;48.396;10.008;2023-11-22T07:03:10;96850.25;;;5.09;62.62
8253;BME280;61313;48.396;10.008;2023-11-22T07:05:36;96853.69;;;5.12;62.57
8253;BME280;61313;48.396;10.008;2023-11-22T07:08:02;96858.63;;;4.71;62.62
8253;BME280;61313;48.396;10.008;2023-11-22T07:10:28;96854.69;;;5.03;62.76
8253;BME280;61313;48.396;10.008;2023-11-22T07:12:54;96855.50;;;5.08;61.64
8253;BME280;61313;48.396;10.008;2023-11-22T07:15:19;96865.94;;;5.05;62.35
8253;BME280;61313;48.396;10.008;2023-11-22T07:17:44;96863.69;;;4.80;62.58
8253;BME280;61313;48.396;10.008;2023-11-22T07:20:10;96862.06;;;4.72;63.24
8253;BME280;61313;48.396;10.008;2023-11-22T07:22:42;96861.22;;;4.70;62.90
8253;BME280;61313;48.396;10.008;2023-11-22T07:25:09;96873.44;;;4.63;63.01
8253;BME280;61313;48.396;10.008;2023-11-22T07:27:44;96873.59;;;4.52;62.86
8253;BME280;61313;48.396;10.008;2023-11-22T07:30:11;96870.78;;;4.67;61.97
8253;BME280;61313;48.396;10.008;2023-11-22T07:32:38;96883.88;;;4.60;62.34
8253;BME280;61313;48.396;10.008;2023-11-22T07:35:05;96889.19;;;4.51;62.68
8253;BME280;61313;48.396;10.008;2023-11-22T07:37:31;96893.47;;;4.56;63.39
8253;BME280;61313;48.396;10.008;2023-11-22T07:39:57;96895.69;;;4.87;62.65
8253;BME280;61313;48.396;10.008;2023-11-22T07:42:22;96901.88;;;4.77;61.48
8253;BME280;61313;48.396;10.008;2023-11-22T07:44:48;96900.91;;;4.84;61.85
8253;BME280;61313;48.396;10.008;2023-11-22T07:47:15;96905.97;;;4.95;60.16
8253;BME280;61313;48.396;10.008;2023-11-22T07:49:41;96905.75;;;5.10;60.39
8253;BME280;61313;48.396;10.008;2023-11-22T07:52:07;96904.94;;;5.05;60.41
8253;BME280;61313;48.396;10.008;2023-11-22T07:54:32;96909.84;;;5.26;60.21
8253;BME280;61313;48.396;10.008;2023-11-22T07:56:58;96916.00;;;5.22;59.94
8253;BME280;61313;48.396;10.008;2023-11-22T07:59:23;96914.75;;;4.87;59.56
8253;BME280;61313;48.396;10.008;2023-11-22T08:01:48;96907.53;;;5.08;60.31
8253;BME280;61313;48.396;10.008;2023-11-22T08:04:14;96918.00;;;5.02;59.43
8253;BME280;61313;48.396;10.008;2023-11-22T08:06:42;96922.31;;;5.04;59.93
8253;BME280;61313;48.396;10.008;2023-11-22T08:09:07;96926.72;;;5.01;60.47
8253;BME280;61313;48.396;10.008;2023-11-22T08:11:34;96923.72;;;4.62;60.38
8253;BME280;61313;48.396;10.008;2023-11-22T08:14:00;96918.06;;;4.99;60.35
8253;BME280;61313;48.396;10.008;2023-11-22T08:16:26;96930.94;;;5.08;60.09
8253;BME280;61313;48.396;10.008;2023-11-22T08:18:52;96939.72;;;4.99;60.91
8253;BME280;61313;48.396;10.008;2023-11-22T08:21:17;96937.97;;;5.01;59.67
8253;BME280;61313;48.396;10.008;2023-11-22T08:23:43;96949.38;;;4.90;60.50
8253;BME280;61313;48.396;10.008;2023-11-22T08:26:10;96953.59;;;5.00;60.12
8253;BME280;61313;48.396;10.008;2023-11-22T08:28:37;96950.13;;;4.98;60.31
8253;BME280;61313;48.396;10.008;2023-11-22T08:31:03;96959.78;;;4.90;60.78
8253;BME280;61313;48.396;10.008;2023-11-22T08:33:29;96965.91;;;4.87;60.57
8253;BME280;61313;48.396;10.008;2023-11-22T08:35:55;96968.50;;;4.85;60.89
8253;BME280;61313;48.396;10.008;2023-11-22T08:38:24;96971.91;;;4.91;61.06
8253;BME280;61313;48.396;10.008;2023-11-22T08:40:51;96979.06;;;4.73;60.75
8253;BME280;61313;48.396;10.008;2023-11-22T08:43:17;96976.50;;;4.67;61.03
8253;BME280;61313;48.396;10.008;2023-11-22T08:45:48;96977.03;;;4.97;60.25
8253;BME280;61313;48.396;10.008;2023-11-22T08:48:13;96978.16;;;4.76;60.18
8253;BME280;61313;48.396;10.008;2023-11-22T08:50:40;96981.75;;;4.62;61.21
8253;BME280;61313;48.396;10.008;2023-11-22T08:53:05;96986.28;;;4.45;61.70
8253;BME280;61313;48.396;10.008;2023-11-22T08:55:31;96981.81;;;4.59;61.67
8253;BME280;61313;48.396;10.008;2023-11-22T08:57:59;96987.38;;;4.24;63.23
8253;BME280;61313;48.396;10.008;2023-11-22T09:00:24;96994.63;;;3.82;64.55
8253;BME280;61313;48.396;10.008;2023-11-22T09:02:53;97004.88;;;4.02;63.91
8253;BME280;61313;48.396;10.008;2023-11-22T09:05:20;97000.50;;;4.06;62.94
8253;BME280;61313;48.396;10.008;2023-11-22T09:07:47;96994.81;;;3.59;64.15
8253;BME280;61313;48.396;10.008;2023-11-22T09:10:12;96989.94;;;3.10;65.29
8253;BME280;61313;48.396;10.008;2023-11-22T09:12:40;96990.00;;;2.96;65.92
8253;BME280;61313;48.396;10.008;2023-11-22T09:15:15;96979.47;;;3.25;65.97
8253;BME280;61313;48.396;10.008;2023-11-22T09:17:49;96986.22;;;3.49;65.37
8253;BME280;61313;48.396;10.008;2023-11-22T09:20:15;96990.38;;;3.75;64.48
8253;BME280;61313;48.396;10.008;2023-11-22T09:22:46;96995.69;;;3.58;65.59
8253;BME280;61313;48.396;10.008;2023-11-22T09:25:19;96998.59;;;4.24;63.41
8253;BME280;61313;48.396;10.008;2023-11-22T09:27:45;96997.84;;;4.16;63.51
8253;BME280;61313;48.396;10.008;2023-11-22T09:30:13;97002.81;;;4.39;63.21
8253;BME280;61313;48.396;10.008;2023-11-22T09:32:47;96998.53;;;4.32;62.56
8253;BME280;61313;48.396;10.008;2023-11-22T09:35:14;96996.88;;;4.25;62.58
8253;BME280;61313;48.396;10.008;2023-11-22T09:37:40;97000.38;;;4.21;63.14
8253;BME280;61313;48.396;10.008;2023-11-22T09:40:10;97004.56;;;4.37;61.99
8253;BME280;61313;48.396;10.008;2023-11-22T09:42:36;97012.19;;;4.54;60.53
8253;BME280;61313;48.396;10.008;2023-11-22T09:45:02;97006.59;;;4.03;62.44
8253;BME280;61313;48.396;10.008;2023-11-22T09:47:31;96998.53;;;4.34;61.35
8253;BME280;61313;48.396;10.008;2023-11-22T09:49:58;97006.50;;;4.14;61.76
8253;BME280;61313;48.396;10.008;2023-11-22T09:52:27;97002.28;;;4.00;62.80
8253;BME280;61313;48.396;10.008;2023-11-22T09:54:54;96996.69;;;4.47;61.65
8253;BME280;61313;48.396;10.008;2023-11-22T09:57:22;97020.28;;;4.20;61.84
8253;BME280;61313;48.396;10.008;2023-11-22T09:59:50;97012.38;;;4.34;61.74
8253;BME280;61313;48.396;10.008;2023-11-22T10:02:17;97024.53;;;4.31;61.35
8253;BME280;61313;48.396;10.008;2023-11-22T10:04:43;97020.63;;;3.77;62.92
8253;BME280;61313;48.396;10.008;2023-11-22T10:07:09;97032.03;;;3.53;63.55
8253;BME280;61313;48.396;10.008;2023-11-22T10:09:35;97027.75;;;3.52;64.47
8253;BME280;61313;48.396;10.008;2023-11-22T10:12:03;97026.63;;;3.87;63.50
8253;BME280;61313;48.396;10.008;2023-11-22T10:14:30;97025.50;;;4.19;62.47
8253;BME280;61313;48.396;10.008;2023-11-22T10:17:02;97017.56;;;4.37;60.79
8253;BME280;61313;48.396;10.008;2023-11-22T10:19:28;97015.72;;;4.44;60.89
8253;BME280;61313;48.396;10.008;2023-11-22T10:22:08;97012.25;;;4.50;60.43
8253;BME280;61313;48.396;10.008;2023-11-22T10:24:35;97006.94;;;4.57;60.06
8253;BME280;61313;48.396;10.008;2023-11-22T10:27:03;97012.38;;;4.37;60.44
8253;BME280;61313;48.396;10.008;2023-11-22T10:29:29;97010.50;;;4.49;60.68
8253;BME280;61313;48.396;10.008;2023-11-22T10:31:54;97014.75;;;4.57;60.29
8253;BME280;61313;48.396;10.008;2023-11-22T10:34:24;97030.03;;;3.95;62.46
8253;BME280;61313;48.396;10.008;2023-11-22T10:36:50;97031.59;;;4.13;61.26
8253;BME280;61313;48.396;10.008;2023-11-22T10:39:22;97026.03;;;4.55;60.63
8253;BME280;61313;48.396;10.008;2023-11-22T10:41:48;97027.59;;;4.71;59.86
8253;BME280;61313;48.396;10.008;2023-11-22T10:44:16;97022.50;;;4.63;59.51
8253;BME280;61313;48.396;10.008;2023-11-22T10:46:41;97035.38;;;4.74;59.43
8253;BME280;61313;48.396;10.008;2023-11-22T10:49:07;97040.22;;;4.23;61.17
8253;BME280;61313;48.396;10.008;2023-11-22T10:51:33;97041.81;;;4.36;61.00
8253;BME280;61313;48.396;10.008;2023-11-22T10:54:02;97047.16;;;4.21;61.58
8253;BME280;61313;48.396;10.008;2023-11-22T10:56:36;97045.78;;;3.68;62.58
8253;BME280;61313;48.396;10.008;2023-11-22T10:59:06;97055.41;;;3.52;63.69
8253;BME280;61313;48.396;10.008;2023-11-22T11:01:34;97047.44;;;3.81;63.79
8253;BME280;61313;48.396;10.008;2023-11-22T11:04:08;97050.63;;;4.15;62.49
8253;BME280;61313;48.396;10.008;2023-11-22T11:06:35;97059.50;;;3.88;62.82
8253;BME280;61313;48.396;10.008;2023-11-22T11:09:02;97066.53;;;3.71;63.16
8253;BME280;61313;48.396;10.008;2023-11-22T11:11:33;97068.31;;;3.63;63.85
8253;BME280;61313;48.396;10.008;2023-11-22T11:14:00;97077.81;;;3.68;62.90
8253;BME280;61313;48.396;10.008;2023-11-22T11:16:27;97070.75;;;3.87;62.32
8253;BME280;61313;48.396;10.008;2023-11-22T11:18:56;97059.31;;;4.16;61.12
8253;BME280;61313;48.396;10.008;2023-11-22T11:21:24;97062.53;;;4.42;60.25
8253;BME280;61313;48.396;10.008;2023-11-22T11:23:52;97061.50;;;4.62;59.34
8253;BME280;61313;48.396;10.008;2023-11-22T11:26:20;97057.09;;;4.67;59.53
8253;BME280;61313;48.396;10.008;2023-11-22T11:28:48;97056.72;;;5.04;61.96
8253;BME280;61313;48.396;10.008;2023-11-22T11:31:14;97067.28;;;4.88;58.79
8253;BME280;61313;48.396;10.008;2023-11-22T11:36:28;97052.19;;;4.39;60.25
8253;BME280;61313;48.396;10.008;2023-11-22T11:39:02;97054.53;;;4.64;60.32
8253;BME280;61313;48.396;10.008;2023-11-22T11:41:32;97052.69;;;4.75;60.00
8253;BME280;61313;48.396;10.008;2023-11-22T11:44:01;97048.25;;;4.83;59.49
8253;BME280;61313;48.396;10.008;2023-11-22T11:46:26;97057.50;;;5.11;58.94
8253;BME280;61313;48.396;10.008;2023-11-22T11:48:53;97049.06;;;4.90;58.28
8253;BME280;61313;48.396;10.008;2023-11-22T11:51:20;97051.34;;;4.36;59.74
8253;BME280;61313;48.396;10.008;2023-11-22T11:53:46;97054.16;;;4.11;59.97
8253;BME280;61313;48.396;10.008;2023-11-22T11:56:13;97050.59;;;4.21;59.96
8253;BME280;61313;48.396;10.008;2023-11-22T11:58:40;97056.47;;;4.47;59.00
8253;BME280;61313;48.396;10.008;2023-11-22T12:01:06;97067.25;;;3.97;60.04
8253;BME280;61313;48.396;10.008;2023-11-22T12:03:33;97061.84;;;4.22;60.06
8253;BME280;61313;48.396;10.008;2023-11-22T12:05:59;97059.28;;;4.17;59.87
8253;BME280;61313;48.396;10.008;2023-11-22T12:08:24;97059.91;;;4.44;59.22
8253;BME280;61313;48.396;10.008;2023-11-22T12:10:49;97059.09;;;4.40;59.02
8253;BME280;61313;48.396;10.008;2023-11-22T12:13:20;97064.28;;;4.39;59.19
8253;BME280;61313;48.396;10.008;2023-11-22T12:15:51;97062.28;;;4.70;58.66
8253;BME280;61313;48.396;10.008;2023-11-22T12:18:16;97064.03;;;4.68;58.18
8253;BME280;61313;48.396;10.008;2023-11-22T12:20:53;97070.88;;;4.78;57.95
8253;BME280;61313;48.396;10.008;2023-11-22T12:23:19;97080.19;;;4.99;57.63
8253;BME280;61313;48.396;10.008;2023-11-22T12:25:45;97079.44;;;4.86;57.41
8253;BME280;61313;48.396;10.008;2023-11-22T12:28:10;97071.75;;;4.74;57.55
8253;BME280;61313;48.396;10.008;2023-11-22T12:30:36;97079.59;;;4.70;57.57
8253;BME280;61313;48.396;10.008;2023-11-22T12:33:06;97086.56;;;4.69;58.05
8253;BME280;61313;48.396;10.008;2023-11-22T12:35:34;97084.84;;;4.65;57.64
8253;BME280;61313;48.396;10.008;2023-11-22T12:38:01;97095.44;;;4.47;57.76
8253;BME280;61313;48.396;10.008;2023-11-22T12:40:29;97111.69;;;4.69;58.06
8253;BME280;61313;48.396;10.008;2023-11-22T12:42:57;97104.53;;;4.91;56.98
8253;BME280;61313;48.396;10.008;2023-11-22T12:45:24;97098.69;;;4.70;56.73
8253;BME280;61313;48.396;10.008;2023-11-22T12:47:50;97096.22;;;4.53;56.66
8253;BME280;61313;48.396;10.008;2023-11-22T12:50:53;97102.19;;;4.64;57.16
8253;BME280;61313;48.396;10.008;2023-11-22T12:53:19;97097.25;;;4.35;57.71
8253;BME280;61313;48.396;10.008;2023-11-22T12:55:50;97110.56;;;3.91;58.79
8253;BME280;61313;48.396;10.008;2023-11-22T12:58:18;97098.25;;;4.19;59.72
8253;BME280;61313;48.396;10.008;2023-11-22T13:00:45;97094.66;;;4.34;58.88
8253;BME280;61313;48.396;10.008;2023-11-22T13:03:11;97094.06;;;3.96;58.75
8253;BME280;61313;48.396;10.008;2023-11-22T13:05:40;97095.75;;;4.03;58.96
8253;BME280;61313;48.396;10.008;2023-11-22T13:08:08;97107.69;;;4.29;58.93
8253;BME280;61313;48.396;10.008;2023-11-22T13:10:36;97107.53;;;4.46;58.37